Time;durP1;ratioP1;P1;durP2;ratioP2;P2;SDS_P1;SDS_P2;PMS_P1;PMS_P2;Temp;Humidity;BMP_temperature;BMP_pressure;BME280_temperature;BME280_humidity;BME280_pressure;Samples;Min_cycle;Max_cycle;Signal;HPM_P1;HPM_P2
2022/01/20 00:01:13;;;;;;;;;;;;;;;;;;5137158;27;19923;-61
2022/01/20 00:03:41;;;;;;;;;;;13.00;94.90;;;;;;5155941;27;19927;-59
2022/01/20 00:29:03;;;;;;;;;;;12.90;95.30;;;;;;5031469;28;19925;-65
2022/01/20 00:33:58;;;;;;;;;;;13.00;95.30;;;;;;5031362;28;19936;-65
2022/01/20 00:39:01;;;;;;;;;;;13.00;95.30;;;;;;5013893;28;20020;-65
2022/01/20 00:41:26;;;;;;;;;;;13.00;95.20;;;;;;5031415;28;20025;-64
2022/01/20 00:43:52;;;;;;;;;;;13.00;95.20;;;;;;5031184;28;20272;-60
2022/01/20 00:46:17;;;;;;;;;;;12.90;95.20;;;;;;5032592;28;19964;-63
2022/01/20 00:48:43;;;;;;;;;;;13.20;95.20;;;;;;5034774;28;19964;-61
2022/01/20 00:51:09;;;;;;;;;;;12.90;95.10;;;;;;5034650;28;19925;-65
2022/01/20 00:53:34;;;;;;;;;;;13.10;95.10;;;;;;5053998;28;19927;-63
2022/01/20 00:56:00;;;;;;;;;;;13.00;95.10;;;;;;5093590;28;19923;-65
2022/01/20 00:58:26;;;;;;;;;;;12.90;95.10;;;;;;5108896;27;20356;-65
2022/01/20 01:00:51;;;;;;;;;;;13.00;95.10;;;;;;5179683;27;19922;-62
2022/01/20 01:03:17;;;;;;;;;;;12.90;95.10;;;;;;5171795;27;19922;-65
2022/01/20 01:06:01;;;;;;;;;;;12.90;95.10;;;;;;5158269;27;20288;-65
2022/01/20 01:08:27;;;;;;;;;;;12.90;95.20;;;;;;5158355;27;19975;-65
2022/01/20 01:10:52;;;;;;;;;;;13.10;95.20;;;;;;5159215;27;19919;-65
2022/01/20 01:13:20;;;;;;;;;;;13.00;95.20;;;;;;5158577;27;19923;-64
2022/01/20 01:15:48;;;;;;;;;;;12.90;95.10;;;;;;5158457;27;19929;-65
2022/01/20 01:23:25;;;;;;;;;;;13.00;95.10;;;;;;5158062;27;19997;-61
2022/01/20 01:25:51;;;;;;;;;;;12.90;95.20;;;;;;5158366;27;19927;-62
2022/01/20 01:28:18;;;;;;;;;;;13.20;95.30;;;;;;5158557;27;20391;-65
2022/01/20 01:33:09;;;;;;;;;;;13.00;95.20;;;;;;5158120;27;20010;-64
2022/01/20 01:35:39;;;;;;;;;;;13.00;95.30;;;;;;5157751;27;19929;-65
2022/01/20 01:40:31;;;;;;;;;;;13.20;95.40;;;;;;5157686;27;19949;-64
2022/01/20 01:42:57;;;;;;;;;;;13.20;95.40;;;;;;5158037;27;19923;-65
2022/01/20 01:45:26;;;;;;;;;;;13.10;95.30;;;;;;5158531;27;19927;-64
2022/01/20 01:47:51;;;;;;;;;;;13.10;95.30;;;;;;5157894;27;19927;-61
2022/01/20 01:50:17;;;;;;;;;;;13.20;95.40;;;;;;5157847;27;19923;-60
2022/01/20 01:52:43;;;;;;;;;;;13.20;95.40;;;;;;5157653;27;19923;-65
2022/01/20 01:55:09;;;;;;;;;;;13.00;95.30;;;;;;5158355;27;20018;-59
2022/01/20 01:57:35;;;;;;;;;;;;;;;;;;5156961;27;19923;-63
2022/01/20 02:00:01;;;;;;;;;;;13.00;95.30;;;;;;5157691;27;20365;-58
2022/01/20 02:02:27;;;;;;;;;;;13.20;95.30;;;;;;5157953;27;19923;-60
2022/01/20 02:04:53;;;;;;;;;;;;;;;;;;5157553;27;20014;-63
2022/01/20 02:18:10;;;;;;;;;;;12.90;95.10;;;;;;5157238;27;19962;-65
2022/01/20 02:20:36;;;;;;;;;;;13.10;95.30;;;;;;5157455;27;19973;-64
2022/01/20 02:23:01;;;;;;;;;;;13.10;95.30;;;;;;5157088;27;19927;-65
2022/01/20 02:25:28;;;;;;;;;;;12.80;95.00;;;;;;5157165;27;19923;-64
2022/01/20 02:27:55;;;;;;;;;;;12.90;95.00;;;;;;5157110;27;19923;-65
2022/01/20 02:30:21;;;;;;;;;;;12.70;95.10;;;;;;5157057;27;19924;-65
2022/01/20 02:32:56;;;;;;;;;;;12.70;95.10;;;;;;5156990;27;20002;-59
2022/01/20 02:35:22;;;;;;;;;;;12.60;95.10;;;;;;5156631;27;19967;-63
2022/01/20 02:37:52;;;;;;;;;;;13.00;95.20;;;;;;5157480;27;19985;-65
2022/01/20 02:45:36;;;;;;;;;;;12.70;94.80;;;;;;5156730;27;19993;-65
2022/01/20 02:48:02;;;;;;;;;;;12.60;94.80;;;;;;5156719;27;19923;-63
2022/01/20 02:50:27;;;;;;;;;;;12.70;94.80;;;;;;5156674;27;20430;-65
2022/01/20 02:52:53;;;;;;;;;;;12.60;94.70;;;;;;5157001;27;19923;-65
2022/01/20 02:55:19;;;;;;;;;;;12.70;94.80;;;;;;5156230;27;19930;-65
2022/01/20 02:57:44;;;;;;;;;;;12.60;94.80;;;;;;5156116;27;19927;-64
2022/01/20 03:00:10;;;;;;;;;;;12.60;94.80;;;;;;5156480;27;19923;-64
2022/01/20 03:02:37;;;;;;;;;;;12.80;95.00;;;;;;5156342;27;20383;-65
2022/01/20 03:05:03;;;;;;;;;;;12.80;95.00;;;;;;5156020;27;19977;-59
2022/01/20 03:07:29;;;;;;;;;;;12.70;94.90;;;;;;5156387;27;19923;-65
2022/01/20 03:09:54;;;;;;;;;;;12.90;94.90;;;;;;5155875;27;19929;-63
2022/01/20 03:12:20;;;;;;;;;;;12.70;95.00;;;;;;5177166;27;19923;-65
2022/01/20 03:14:45;;;;;;;;;;;13.10;95.00;;;;;;5177653;27;20280;-64
2022/01/20 03:17:13;;;;;;;;;;;12.90;95.00;;;;;;5176644;27;19974;-64
2022/01/20 03:19:39;;;;;;;;;;;12.80;94.90;;;;;;5176707;27;19923;-64
2022/01/20 03:22:04;;;;;;;;;;;12.90;94.90;;;;;;5176847;27;20391;-64
2022/01/20 03:24:30;;;;;;;;;;;12.90;94.90;;;;;;5176953;27;19923;-65
2022/01/20 03:26:56;;;;;;;;;;;12.70;94.90;;;;;;5175859;27;19954;-61
2022/01/20 03:29:21;;;;;;;;;;;12.60;94.80;;;;;;5155672;27;20305;-65
2022/01/20 03:31:47;;;;;;;;;;;12.90;94.80;;;;;;5155958;27;19930;-64
2022/01/20 03:34:13;;;;;;;;;;;12.60;94.70;;;;;;5155952;27;19946;-64
2022/01/20 03:36:38;;;;;;;;;;;12.90;94.70;;;;;;5155822;27;19923;-65
2022/01/20 03:39:04;;;;;;;;;;;12.90;94.80;;;;;;5155894;27;19924;-65
2022/01/20 03:41:30;;;;;;;;;;;;;;;;;;5155886;27;20329;-65
2022/01/20 03:43:56;;;;;;;;;;;12.70;94.40;;;;;;5156135;27;19922;-65
2022/01/20 03:46:22;;;;;;;;;;;12.90;94.40;;;;;;5155810;27;19927;-65
2022/01/20 03:48:53;;;;;;;;;;;12.60;94.30;;;;;;5155797;27;20403;-65
2022/01/20 03:51:21;;;;;;;;;;;12.60;94.30;;;;;;5155907;27;19923;-65
2022/01/20 03:53:47;;;;;;;;;;;12.90;94.50;;;;;;5155751;27;20329;-62
2022/01/20 03:56:13;;;;;;;;;;;12.80;94.30;;;;;;5155684;27;19923;-65
2022/01/20 03:58:39;;;;;;;;;;;12.70;94.30;;;;;;5155693;27;20416;-60
2022/01/20 04:01:04;;;;;;;;;;;12.80;94.50;;;;;;5156226;27;19931;-65
2022/01/20 04:03:30;;;;;;;;;;;12.80;94.50;;;;;;5174767;27;19923;-63
2022/01/20 04:05:59;;;;;;;;;;;12.90;94.60;;;;;;5176494;27;19968;-64
2022/01/20 04:08:31;;;;;;;;;;;12.60;94.50;;;;;;5174462;27;19968;-65
2022/01/20 04:11:00;;;;;;;;;;;12.70;94.50;;;;;;5164559;27;19982;-64
2022/01/20 04:13:30;;;;;;;;;;;12.90;94.30;;;;;;5176442;27;19929;-65
2022/01/20 04:15:56;;;;;;;;;;;;;;;;;;5176008;27;19923;-64
2022/01/20 04:18:26;;;;;;;;;;;13.00;94.20;;;;;;5171331;27;19929;-64
2022/01/20 04:20:51;;;;;;;;;;;12.70;94.10;;;;;;5155843;27;19971;-64
2022/01/20 04:23:17;;;;;;;;;;;12.80;94.20;;;;;;5159243;27;20392;-65
2022/01/20 04:25:43;;;;;;;;;;;12.80;94.30;;;;;;5159523;27;19978;-59
2022/01/20 04:28:08;;;;;;;;;;;12.90;94.40;;;;;;5159476;27;19923;-65
2022/01/20 04:30:34;;;;;;;;;;;13.00;94.40;;;;;;5159462;27;19924;-64
2022/01/20 04:33:00;;;;;;;;;;;12.90;94.40;;;;;;5159346;27;19923;-60
2022/01/20 04:35:25;;;;;;;;;;;12.80;94.10;;;;;;5160150;27;19966;-65
2022/01/20 04:37:53;;;;;;;;;;;12.90;94.30;;;;;;5159242;27;20291;-65
2022/01/20 04:40:19;;;;;;;;;;;;;;;;;;5158940;27;19923;-66
2022/01/20 04:42:47;;;;;;;;;;;12.50;94.10;;;;;;5158874;27;19924;-65
2022/01/20 04:45:18;;;;;;;;;;;12.80;94.10;;;;;;5159106;27;19951;-65
2022/01/20 04:58:35;;;;;;;;;;;12.40;93.90;;;;;;5115186;28;19954;-64
2022/01/20 05:01:02;;;;;;;;;;;12.30;94.00;;;;;;5115077;28;19927;-63
2022/01/20 05:03:28;;;;;;;;;;;12.20;94.10;;;;;;5115819;28;19978;-65
2022/01/20 05:05:54;;;;;;;;;;;12.20;93.90;;;;;;5115222;28;19967;-65
2022/01/20 05:08:23;;;;;;;;;;;12.50;93.90;;;;;;5115111;28;20381;-64
2022/01/20 05:10:49;;;;;;;;;;;12.00;93.80;;;;;;5081425;28;19924;-63
2022/01/20 05:13:24;;;;;;;;;;;12.10;94.00;;;;;;5094531;28;19928;-64
2022/01/20 05:15:50;;;;;;;;;;;;;;;;;;5094464;28;20032;-65
2022/01/20 05:18:16;;;;;;;;;;;12.20;94.10;;;;;;5094530;28;19950;-59
2022/01/20 05:20:42;;;;;;;;;;;12.50;94.10;;;;;;5094109;28;20014;-63
2022/01/20 05:23:07;;;;;;;;;;;12.10;94.10;;;;;;5094394;28;20018;-65
2022/01/20 05:25:33;;;;;;;;;;;12.40;94.20;;;;;;5094474;28;19924;-64
2022/01/20 05:27:59;;;;;;;;;;;12.50;94.20;;;;;;5094844;28;19924;-65
2022/01/20 05:30:24;;;;;;;;;;;12.40;94.20;;;;;;5099461;27;19946;-65
2022/01/20 05:32:50;;;;;;;;;;;12.60;94.20;;;;;;5156964;27;20376;-65
2022/01/20 05:35:16;;;;;;;;;;;12.70;94.30;;;;;;5158148;27;20026;-65
2022/01/20 05:37:41;;;;;;;;;;;12.40;94.20;;;;;;5158047;27;20395;-64
2022/01/20 05:40:07;;;;;;;;;;;12.40;94.20;;;;;;5158095;27;19923;-65
2022/01/20 05:42:35;;;;;;;;;;;12.40;94.20;;;;;;5157999;27;19923;-64
2022/01/20 05:45:02;;;;;;;;;;;12.40;94.20;;;;;;5158550;27;19934;-60
2022/01/20 05:47:30;;;;;;;;;;;12.60;94.30;;;;;;5139533;27;19923;-63
2022/01/20 05:49:56;;;;;;;;;;;12.50;94.30;;;;;;5157936;27;20337;-65
2022/01/20 05:52:22;;;;;;;;;;;12.30;94.20;;;;;;5157680;27;19931;-59
2022/01/20 05:54:47;;;;;;;;;;;12.60;94.50;;;;;;5157776;27;19927;-64
2022/01/20 05:57:13;;;;;;;;;;;12.70;94.50;;;;;;5157718;27;19923;-61
2022/01/20 05:59:38;;;;;;;;;;;12.50;94.40;;;;;;5157344;27;19923;-62
2022/01/20 06:02:12;;;;;;;;;;;12.50;94.30;;;;;;5157774;27;19923;-63
2022/01/20 06:04:38;;;;;;;;;;;;;;;;;;5158148;27;19923;-66
2022/01/20 06:07:04;;;;;;;;;;;12.70;94.50;;;;;;5157599;27;19923;-64
2022/01/20 06:09:30;;;;;;;;;;;12.80;94.50;;;;;;5157524;27;19982;-65
2022/01/20 06:11:55;;;;;;;;;;;12.80;94.50;;;;;;5157125;27;19968;-65
2022/01/20 06:14:23;;;;;;;;;;;12.80;94.50;;;;;;5157416;27;19927;-65
2022/01/20 06:16:49;;;;;;;;;;;12.50;94.40;;;;;;5157443;27;20325;-65
2022/01/20 06:19:15;;;;;;;;;;;12.70;94.40;;;;;;5177999;27;20006;-65
2022/01/20 06:21:41;;;;;;;;;;;12.70;94.40;;;;;;5177517;27;20367;-64
2022/01/20 06:24:07;;;;;;;;;;;12.80;94.40;;;;;;5178085;27;20002;-61
2022/01/20 06:26:33;;;;;;;;;;;12.80;94.50;;;;;;5178024;27;20367;-64
2022/01/20 06:28:58;;;;;;;;;;;12.60;94.40;;;;;;5178617;27;19972;-65
2022/01/20 06:31:24;;;;;;;;;;;12.90;94.50;;;;;;5177559;27;19966;-64
2022/01/20 06:33:50;;;;;;;;;;;;;;;;;;5177412;27;19923;-65
2022/01/20 06:36:15;;;;;;;;;;;12.60;94.30;;;;;;5156580;27;19923;-65
2022/01/20 06:38:42;;;;;;;;;;;12.60;94.10;;;;;;5156920;27;19923;-64
2022/01/20 06:41:08;;;;;;;;;;;12.50;94.00;;;;;;5156580;27;19919;-64
2022/01/20 06:43:33;;;;;;;;;;;12.40;93.90;;;;;;5156536;27;19923;-65
2022/01/20 06:45:59;;;;;;;;;;;12.50;93.90;;;;;;5157355;27;19930;-65
2022/01/20 06:48:25;;;;;;;;;;;12.40;94.00;;;;;;5156713;27;19919;-65
2022/01/20 06:50:50;;;;;;;;;;;12.40;94.10;;;;;;5156754;27;19927;-59
2022/01/20 06:53:16;;;;;;;;;;;12.50;94.20;;;;;;5158643;27;19961;-65
2022/01/20 06:55:41;;;;;;;;;;;12.50;94.20;;;;;;5177384;27;19923;-62
2022/01/20 06:58:07;;;;;;;;;;;12.50;94.20;;;;;;5177119;27;20446;-65
2022/01/20 07:00:33;;;;;;;;;;;12.70;94.20;;;;;;5177940;27;19975;-60
2022/01/20 07:02:58;;;;;;;;;;;12.60;94.20;;;;;;5157579;27;20366;-65
2022/01/20 07:05:24;;;;;;;;;;;12.60;94.20;;;;;;5156051;27;19924;-65
2022/01/20 07:07:50;;;;;;;;;;;12.60;94.20;;;;;;5156934;27;19923;-59
2022/01/20 07:10:18;;;;;;;;;;;12.50;94.20;;;;;;5156008;27;19948;-65
2022/01/20 07:12:44;;;;;;;;;;;12.60;94.30;;;;;;5156267;27;20314;-59
2022/01/20 07:15:10;;;;;;;;;;;12.60;94.30;;;;;;5157483;27;19976;-60
2022/01/20 07:17:35;;;;;;;;;;;12.40;94.30;;;;;;5167681;27;19923;-65
2022/01/20 07:20:01;;;;;;;;;;;12.60;94.40;;;;;;5155966;27;19983;-65
2022/01/20 07:22:27;;;;;;;;;;;12.60;94.30;;;;;;5156011;27;20322;-65
2022/01/20 07:24:53;;;;;;;;;;;12.70;94.40;;;;;;5156479;27;20398;-58
2022/01/20 07:27:18;;;;;;;;;;;12.50;94.40;;;;;;5156102;27;20431;-65
2022/01/20 07:29:44;;;;;;;;;;;12.70;94.40;;;;;;5155745;27;20292;-64
2022/01/20 07:32:09;;;;;;;;;;;12.60;94.30;;;;;;5155943;27;19971;-65
2022/01/20 07:34:35;;;;;;;;;;;12.70;94.30;;;;;;5155973;27;19923;-65
2022/01/20 07:37:01;;;;;;;;;;;12.70;94.30;;;;;;5155873;27;20013;-61
2022/01/20 07:39:27;;;;;;;;;;;12.80;94.40;;;;;;5155921;27;19946;-65
2022/01/20 07:41:52;;;;;;;;;;;12.60;94.30;;;;;;5156462;27;19923;-59
2022/01/20 07:44:19;;;;;;;;;;;12.80;94.40;;;;;;5155843;27;20386;-59
2022/01/20 07:46:45;;;;;;;;;;;12.70;94.30;;;;;;5155517;27;20383;-61
2022/01/20 07:49:11;;;;;;;;;;;12.80;94.30;;;;;;5155878;27;19927;-59
2022/01/20 07:51:37;;;;;;;;;;;13.10;94.30;;;;;;5155635;27;20313;-62
2022/01/20 07:54:03;;;;;;;;;;;12.60;94.20;;;;;;5155801;27;20272;-59
2022/01/20 07:56:29;;;;;;;;;;;12.60;94.30;;;;;;5157300;27;19923;-60
2022/01/20 07:58:54;;;;;;;;;;;12.70;94.20;;;;;;5160672;27;19923;-65
2022/01/20 08:01:22;;;;;;;;;;;12.80;94.30;;;;;;5159895;27;20464;-59
2022/01/20 08:03:47;;;;;;;;;;;12.70;94.30;;;;;;5159957;27;19927;-65
2022/01/20 08:06:14;;;;;;;;;;;12.70;94.30;;;;;;5159649;27;19923;-65
2022/01/20 08:08:39;;;;;;;;;;;12.60;94.30;;;;;;5159887;27;19951;-65
2022/01/20 08:11:05;;;;;;;;;;;12.50;94.20;;;;;;5159837;27;20343;-65
2022/01/20 08:13:30;;;;;;;;;;;12.80;94.30;;;;;;5159795;27;19991;-62
2022/01/20 08:15:56;;;;;;;;;;;12.50;94.10;;;;;;5160542;27;20372;-65
2022/01/20 08:18:22;;;;;;;;;;;13.00;94.30;;;;;;5180268;27;20276;-65
2022/01/20 08:20:47;;;;;;;;;;;12.70;94.20;;;;;;5180109;27;19929;-65
2022/01/20 08:23:13;;;;;;;;;;;12.70;94.20;;;;;;5180504;27;19923;-59
2022/01/20 08:25:39;;;;;;;;;;;12.70;94.20;;;;;;5180142;27;20280;-65
2022/01/20 08:28:04;;;;;;;;;;;12.70;94.20;;;;;;5180406;27;19923;-65
2022/01/20 08:30:30;;;;;;;;;;;12.60;94.30;;;;;;5180108;27;20431;-65
2022/01/20 08:32:56;;;;;;;;;;;;;;;;;;5179385;27;19922;-63
2022/01/20 08:35:22;;;;;;;;;;;12.90;94.30;;;;;;5180241;27;19923;-61
2022/01/20 08:37:48;;;;;;;;;;;12.90;94.30;;;;;;5180172;27;19922;-61
2022/01/20 08:40:15;;;;;;;;;;;12.80;94.30;;;;;;5179817;27;19929;-64
2022/01/20 08:42:45;;;;;;;;;;;12.70;94.30;;;;;;5179784;27;20398;-64
2022/01/20 08:45:11;;;;;;;;;;;12.90;94.30;;;;;;5180028;27;19927;-59
2022/01/20 08:47:37;;;;;;;;;;;12.90;94.30;;;;;;5180544;27;20019;-65
2022/01/20 08:50:03;;;;;;;;;;;12.90;94.20;;;;;;5177487;27;19927;-65
2022/01/20 08:52:29;;;;;;;;;;;12.70;94.20;;;;;;5158588;27;19935;-59
2022/01/20 08:54:55;;;;;;;;;;;12.80;94.20;;;;;;5159554;27;19923;-59
2022/01/20 08:57:21;;;;;;;;;;;;;;;;;;5158833;27;19957;-59
2022/01/20 08:59:46;;;;;;;;;;;12.80;94.20;;;;;;5158602;27;20300;-65
2022/01/20 09:02:12;;;;;;;;;;;13.00;94.30;;;;;;5158662;27;19919;-65
2022/01/20 09:04:38;;;;;;;;;;;12.90;94.20;;;;;;5159327;27;19930;-65
2022/01/20 09:07:03;;;;;;;;;;;13.00;94.20;;;;;;5160357;27;19929;-64
2022/01/20 09:09:29;;;;;;;;;;;13.10;94.20;;;;;;5179595;27;19922;-65
2022/01/20 09:12:17;;;;;;;;;;;12.80;94.10;;;;;;5179553;27;19929;-60
2022/01/20 09:17:28;;;;;;;;;;;13.00;94.10;;;;;;5179060;27;19923;-65
2022/01/20 09:19:53;;;;;;;;;;;13.00;94.20;;;;;;5179036;27;19930;-65
2022/01/20 09:22:19;;;;;;;;;;;12.80;94.10;;;;;;5160167;27;19922;-59
2022/01/20 09:24:45;;;;;;;;;;;13.10;94.10;;;;;;5178419;27;20359;-67
2022/01/20 09:27:11;;;;;;;;;;;13.00;94.10;;;;;;5178931;27;19929;-64
2022/01/20 09:29:37;;;;;;;;;;;12.90;94.10;;;;;;5179245;27;20284;-65
2022/01/20 09:32:05;;;;;;;;;;;13.20;94.10;;;;;;5178713;27;19922;-59
2022/01/20 09:34:31;;;;;;;;;;;13.10;94.10;;;;;;5178765;27;19927;-59
2022/01/20 09:36:56;;;;;;;;;;;13.10;94.00;;;;;;5178998;27;19923;-65
2022/01/20 09:39:22;;;;;;;;;;;13.10;93.90;;;;;;5179038;27;19923;-65
2022/01/20 09:41:48;;;;;;;;;;;13.10;93.90;;;;;;5177831;27;19926;-65
2022/01/20 09:44:13;;;;;;;;;;;12.90;93.90;;;;;;5178909;27;19923;-65
2022/01/20 09:46:39;;;;;;;;;;;13.30;94.00;;;;;;5179489;27;19923;-64
2022/01/20 09:49:05;;;;;;;;;;;13.10;93.90;;;;;;5178532;27;19922;-65
2022/01/20 09:51:31;;;;;;;;;;;13.10;94.00;;;;;;5159788;27;19934;-60
2022/01/20 09:53:56;;;;;;;;;;;13.10;94.00;;;;;;5178431;27;19918;-65
2022/01/20 09:56:22;;;;;;;;;;;13.00;94.00;;;;;;5178613;27;20011;-65
2022/01/20 09:58:47;;;;;;;;;;;12.90;94.00;;;;;;5177774;27;20283;-65
2022/01/20 10:01:15;;;;;;;;;;;13.00;94.00;;;;;;5173955;27;20337;-65
2022/01/20 10:03:45;;;;;;;;;;;13.00;94.00;;;;;;5157331;27;19927;-62
2022/01/20 10:06:11;;;;;;;;;;;13.30;94.10;;;;;;5156303;27;19927;-65
2022/01/20 10:08:36;;;;;;;;;;;13.30;94.10;;;;;;5158075;27;19919;-65
2022/01/20 10:11:07;;;;;;;;;;;13.20;94.00;;;;;;5157528;27;19923;-59
2022/01/20 10:13:34;;;;;;;;;;;13.20;94.00;;;;;;5157462;27;19919;-61
2022/01/20 10:16:02;;;;;;;;;;;13.10;93.90;;;;;;5157944;27;19954;-63
2022/01/20 10:18:28;;;;;;;;;;;13.10;93.80;;;;;;5156802;27;19926;-65
2022/01/20 10:20:54;;;;;;;;;;;13.00;93.70;;;;;;5156686;27;19923;-65
2022/01/20 10:23:47;;;;;;;;;;;13.40;93.90;;;;;;5164818;27;19927;-63
2022/01/20 10:26:13;;;;;;;;;;;;;;;;;;5153407;27;19975;-61
2022/01/20 10:28:46;;;;;;;;;;;13.40;93.90;;;;;;5156884;27;20371;-65
2022/01/20 10:31:12;;;;;;;;;;;13.40;94.00;;;;;;5137945;27;19944;-64
2022/01/20 10:33:41;;;;;;;;;;;13.20;93.80;;;;;;5157173;27;19919;-66
2022/01/20 10:36:07;;;;;;;;;;;13.10;93.70;;;;;;5156929;27;20304;-59
2022/01/20 10:38:33;;;;;;;;;;;13.20;93.80;;;;;;5156673;27;19923;-65
2022/01/20 10:40:59;;;;;;;;;;;13.20;93.40;;;;;;5156901;27;19930;-64
2022/01/20 10:43:29;;;;;;;;;;;13.30;93.70;;;;;;5156559;27;20388;-63
2022/01/20 10:46:04;;;;;;;;;;;13.10;93.60;;;;;;5156838;27;19947;-60
2022/01/20 10:48:30;;;;;;;;;;;13.20;93.60;;;;;;5156461;27;19923;-59
2022/01/20 10:50:55;;;;;;;;;;;13.40;93.60;;;;;;5157169;27;20006;-59
2022/01/20 10:53:21;;;;;;;;;;;13.40;93.60;;;;;;5156326;27;20380;-59
2022/01/20 10:55:47;;;;;;;;;;;13.30;93.60;;;;;;5156353;27;19930;-59
2022/01/20 10:58:13;;;;;;;;;;;;;;;;;;5156143;27;19931;-60
2022/01/20 11:00:42;;;;;;;;;;;13.70;93.60;;;;;;5156547;27;19929;-65
2022/01/20 11:03:08;;;;;;;;;;;13.60;93.60;;;;;;5156104;27;19923;-66
2022/01/20 11:05:33;;;;;;;;;;;13.70;93.60;;;;;;5156063;27;19976;-65
2022/01/20 11:08:00;;;;;;;;;;;13.60;93.50;;;;;;5175154;27;19923;-60
2022/01/20 11:10:26;;;;;;;;;;;;;;;;;;5177248;27;19922;-65
2022/01/20 11:12:52;;;;;;;;;;;13.60;93.50;;;;;;5177212;27;19923;-65
2022/01/20 11:15:18;;;;;;;;;;;13.50;93.50;;;;;;5176841;27;19930;-65
2022/01/20 11:17:43;;;;;;;;;;;13.70;93.60;;;;;;5177008;27;20055;-65
2022/01/20 11:20:11;;;;;;;;;;;13.40;93.50;;;;;;5158361;27;20389;-66
2022/01/20 11:22:37;;;;;;;;;;;13.60;93.40;;;;;;5176871;27;19974;-64
2022/01/20 11:25:04;;;;;;;;;;;13.60;93.50;;;;;;5176097;27;19923;-63
2022/01/20 11:27:33;;;;;;;;;;;13.60;93.50;;;;;;5177008;27;20079;-65
2022/01/20 11:30:01;;;;;;;;;;;13.80;93.40;;;;;;5176440;27;19923;-65
2022/01/20 11:32:27;;;;;;;;;;;13.50;93.40;;;;;;5176500;27;19956;-65
2022/01/20 11:34:56;;;;;;;;;;;13.80;93.50;;;;;;5176856;27;20005;-65
2022/01/20 11:37:23;;;;;;;;;;;14.10;93.50;;;;;;5176806;27;19927;-63
2022/01/20 11:39:49;;;;;;;;;;;;;;;;;;5175966;27;20328;-63
2022/01/20 11:42:22;;;;;;;;;;;14.00;93.30;;;;;;5176483;27;19948;-65
2022/01/20 11:44:47;;;;;;;;;;;14.10;93.30;;;;;;5176792;27;19922;-59
2022/01/20 11:47:13;;;;;;;;;;;13.90;93.20;;;;;;5176678;27;20336;-65
2022/01/20 11:49:40;;;;;;;;;;;14.10;93.10;;;;;;5176713;27;20411;-62
2022/01/20 11:52:05;;;;;;;;;;;14.10;92.90;;;;;;5176538;27;19922;-65
2022/01/20 11:54:31;;;;;;;;;;;14.00;93.00;;;;;;5158015;27;20006;-59
2022/01/20 11:57:12;;;;;;;;;;;14.10;93.00;;;;;;5175393;27;19923;-66
2022/01/20 11:59:42;;;;;;;;;;;14.10;93.00;;;;;;5176613;27;19975;-65
2022/01/20 12:02:08;;;;;;;;;;;14.10;93.00;;;;;;5164035;27;19919;-66
2022/01/20 12:04:34;;;;;;;;;;;14.20;92.70;;;;;;5155634;27;19930;-64
2022/01/20 12:06:59;;;;;;;;;;;14.20;92.70;;;;;;5155685;27;19970;-65
2022/01/20 12:09:31;;;;;;;;;;;14.20;92.60;;;;;;5155625;27;19981;-66
2022/01/20 12:11:57;;;;;;;;;;;14.10;92.70;;;;;;5155630;27;19930;-65
2022/01/20 12:14:35;;;;;;;;;;;14.20;92.60;;;;;;5156191;27;20372;-62
2022/01/20 12:17:02;;;;;;;;;;;13.90;92.60;;;;;;5155507;27;19923;-60
2022/01/20 12:19:28;;;;;;;;;;;13.90;92.60;;;;;;5155597;27;20453;-65
2022/01/20 12:21:53;;;;;;;;;;;14.00;92.50;;;;;;5154973;27;19923;-65
2022/01/20 12:24:20;;;;;;;;;;;13.80;92.70;;;;;;5156038;27;19930;-65
2022/01/20 12:26:46;;;;;;;;;;;13.90;92.90;;;;;;5155171;27;19977;-62
2022/01/20 12:29:12;;;;;;;;;;;13.80;92.80;;;;;;5155443;27;19963;-65
2022/01/20 12:31:48;;;;;;;;;;;14.00;92.80;;;;;;5155659;27;19923;-65
2022/01/20 12:34:14;;;;;;;;;;;14.00;92.80;;;;;;5155452;27;19974;-64
2022/01/20 12:36:40;;;;;;;;;;;13.90;92.90;;;;;;5155268;27;20364;-64
2022/01/20 12:39:06;;;;;;;;;;;13.70;92.90;;;;;;5136592;27;19978;-65
2022/01/20 12:41:31;;;;;;;;;;;13.80;93.00;;;;;;5155582;27;19985;-64
2022/01/20 12:44:04;;;;;;;;;;;13.70;93.10;;;;;;5159220;27;20325;-65
2022/01/20 12:46:30;;;;;;;;;;;13.60;93.10;;;;;;5158891;27;19923;-65
2022/01/20 12:48:57;;;;;;;;;;;13.80;93.10;;;;;;5159907;27;19946;-65
2022/01/20 12:51:30;;;;;;;;;;;13.70;93.10;;;;;;5158973;27;20389;-65
2022/01/20 12:54:04;;;;;;;;;;;13.90;93.20;;;;;;5159047;27;20291;-61
2022/01/20 12:56:30;;;;;;;;;;;13.60;93.10;;;;;;5140873;27;19930;-65
2022/01/20 12:58:56;;;;;;;;;;;13.70;93.10;;;;;;5158663;27;20014;-65
2022/01/20 13:01:21;;;;;;;;;;;13.60;93.10;;;;;;5158936;27;20126;-61
2022/01/20 13:03:47;;;;;;;;;;;13.70;93.10;;;;;;5158859;27;19923;-65
2022/01/20 13:06:22;;;;;;;;;;;13.60;92.70;;;;;;5170795;27;19968;-61
2022/01/20 13:09:04;;;;;;;;;;;13.90;93.20;;;;;;5162389;27;19923;-64
2022/01/20 13:11:57;;;;;;;;;;;13.90;93.20;;;;;;5179265;27;20014;-65
2022/01/20 13:14:33;;;;;;;;;;;13.70;93.10;;;;;;5179215;27;19923;-64
2022/01/20 13:16:59;;;;;;;;;;;13.70;92.90;;;;;;5179094;27;20418;-64
2022/01/20 13:19:51;;;;;;;;;;;13.90;93.10;;;;;;5179099;27;19922;-61
2022/01/20 13:22:20;;;;;;;;;;;13.90;93.00;;;;;;5172891;27;19927;-64
2022/01/20 13:24:46;;;;;;;;;;;13.50;92.80;;;;;;5179900;27;19929;-65
2022/01/20 13:27:12;;;;;;;;;;;13.60;93.00;;;;;;5179345;27;20014;-64
2022/01/20 13:29:42;;;;;;;;;;;13.70;92.90;;;;;;5177191;27;20488;-64
2022/01/20 13:32:07;;;;;;;;;;;13.70;92.90;;;;;;5168368;27;19923;-64
2022/01/20 13:34:33;;;;;;;;;;;13.80;93.10;;;;;;5179489;27;19922;-65
2022/01/20 13:36:59;;;;;;;;;;;13.30;93.00;;;;;;5179036;27;20009;-63
2022/01/20 13:39:31;;;;;;;;;;;13.70;93.00;;;;;;5173245;27;20038;-59
2022/01/20 13:42:03;;;;;;;;;;;13.40;92.70;;;;;;5158128;27;20014;-65
2022/01/20 13:47:13;;;;;;;;;;;13.60;92.80;;;;;;5157684;27;19926;-65
2022/01/20 13:49:54;;;;;;;;;;;13.10;92.80;;;;;;5157980;27;19923;-65
2022/01/20 13:52:20;;;;;;;;;;;12.90;92.70;;;;;;5157498;27;19927;-64
2022/01/20 13:54:50;;;;;;;;;;;13.00;92.80;;;;;;5156662;27;20031;-64
2022/01/20 13:57:16;;;;;;;;;;;13.00;92.70;;;;;;5158362;27;20293;-63
2022/01/20 13:59:52;;;;;;;;;;;12.90;92.80;;;;;;5157829;27;19934;-64
2022/01/20 14:02:18;;;;;;;;;;;13.00;92.90;;;;;;5157549;27;19923;-64
2022/01/20 14:04:44;;;;;;;;;;;13.20;92.90;;;;;;5157368;27;20410;-64
2022/01/20 14:07:09;;;;;;;;;;;12.80;92.90;;;;;;5157664;27;19988;-64
2022/01/20 14:09:35;;;;;;;;;;;12.80;93.00;;;;;;5157262;27;19930;-64
2022/01/20 14:12:01;;;;;;;;;;;13.10;93.10;;;;;;5157548;27;19923;-59
2022/01/20 14:14:26;;;;;;;;;;;13.00;93.00;;;;;;5171388;27;19922;-64
2022/01/20 14:16:53;;;;;;;;;;;12.90;93.00;;;;;;5178249;27;19922;-64
2022/01/20 14:19:22;;;;;;;;;;;13.00;93.00;;;;;;5177923;27;20440;-64
2022/01/20 14:21:48;;;;;;;;;;;13.00;93.10;;;;;;5155667;27;20026;-59
2022/01/20 14:24:14;;;;;;;;;;;12.90;93.10;;;;;;5157305;27;20377;-64
2022/01/20 14:26:44;;;;;;;;;;;12.90;93.10;;;;;;5156907;27;19927;-64
2022/01/20 14:29:13;;;;;;;;;;;12.90;93.10;;;;;;5157779;27;20017;-65
2022/01/20 14:31:38;;;;;;;;;;;13.10;93.20;;;;;;5141139;27;20277;-60
2022/01/20 14:34:04;;;;;;;;;;;12.90;93.10;;;;;;5136064;27;19923;-59
2022/01/20 14:36:30;;;;;;;;;;;13.10;93.20;;;;;;5136264;27;19934;-59
2022/01/20 14:38:55;;;;;;;;;;;12.90;93.20;;;;;;5136267;27;19923;-60
2022/01/20 14:41:21;;;;;;;;;;;13.10;93.20;;;;;;5136244;27;19924;-59
2022/01/20 14:43:47;;;;;;;;;;;13.10;92.80;;;;;;5134984;27;19923;-60
2022/01/20 14:46:12;;;;;;;;;;;13.10;93.20;;;;;;5135859;27;20330;-65
2022/01/20 14:48:38;;;;;;;;;;;13.00;93.20;;;;;;5151833;27;20018;-64
2022/01/20 14:51:04;;;;;;;;;;;13.10;93.30;;;;;;5156304;27;19927;-64
2022/01/20 14:53:30;;;;;;;;;;;13.20;93.30;;;;;;5156720;27;19928;-64
2022/01/20 14:55:58;;;;;;;;;;;;;;;;;;5156711;27;19977;-62
2022/01/20 14:58:23;;;;;;;;;;;13.10;93.10;;;;;;5156631;27;19923;-64
2022/01/20 15:00:49;;;;;;;;;;;13.10;93.00;;;;;;5155692;27;20023;-64
2022/01/20 15:03:14;;;;;;;;;;;12.90;92.90;;;;;;5135805;27;19923;-64
2022/01/20 15:05:40;;;;;;;;;;;12.90;92.90;;;;;;5136168;27;19976;-61
2022/01/20 15:08:06;;;;;;;;;;;12.70;92.80;;;;;;5135442;27;19923;-65
2022/01/20 15:10:31;;;;;;;;;;;12.50;92.90;;;;;;5135364;27;19923;-65
2022/01/20 15:13:01;;;;;;;;;;;12.60;92.90;;;;;;5135735;27;19930;-65
2022/01/20 15:15:27;;;;;;;;;;;12.60;93.00;;;;;;5135681;27;19924;-65
2022/01/20 15:17:53;;;;;;;;;;;12.30;92.90;;;;;;5135838;27;20356;-65
2022/01/20 15:20:18;;;;;;;;;;;12.70;93.00;;;;;;5138447;27;19966;-65
2022/01/20 15:22:44;;;;;;;;;;;12.50;93.00;;;;;;5156760;27;19923;-64
2022/01/20 15:25:10;;;;;;;;;;;12.60;93.00;;;;;;5156172;27;20424;-63
2022/01/20 15:27:36;;;;;;;;;;;12.20;92.90;;;;;;5156124;27;20291;-64
2022/01/20 15:30:02;;;;;;;;;;;12.40;93.10;;;;;;5156126;27;20344;-64
2022/01/20 15:32:28;;;;;;;;;;;12.40;93.10;;;;;;5137240;27;20009;-65